Time;durP1;ratioP1;P1;durP2;ratioP2;P2;SDS_P1;SDS_P2;PMS_P1;PMS_P2;Temp;Humidity;BMP_temperature;BMP_pressure;BME280_temperature;BME280_humidity;BME280_pressure;Samples;Min_cycle;Max_cycle;Signal;HPM_P1;HPM_P2
2022/10/15 00:00:42;;;;;;;11.10;7.97;;;14.00;99.90;;;;;;5080672;28;20028;-41
2022/10/15 00:03:08;;;;;;;14.75;9.43;;;13.90;99.90;;;;;;5087509;28;20385;-40
2022/10/15 00:05:37;;;;;;;14.27;8.15;;;13.90;99.90;;;;;;5089022;28;20028;-42
2022/10/15 00:08:03;;;;;;;10.13;8.02;;;13.90;99.90;;;;;;5089295;28;20035;-41
2022/10/15 00:10:28;;;;;;;13.13;8.38;;;14.00;99.90;;;;;;5089349;28;20024;-42
2022/10/15 00:12:54;;;;;;;13.07;8.18;;;14.00;99.90;;;;;;5088646;28;20028;-41
2022/10/15 00:15:19;;;;;;;11.73;8.70;;;14.00;99.90;;;;;;5090564;28;20114;-40
2022/10/15 00:17:45;;;;;;;10.07;7.45;;;14.00;99.90;;;;;;5092621;28;20384;-43
2022/10/15 00:20:10;;;;;;;12.13;8.40;;;14.00;99.90;;;;;;5092482;28;20062;-44
2022/10/15 00:22:36;;;;;;;14.57;8.27;;;14.00;99.90;;;;;;5090797;28;20115;-41
2022/10/15 00:25:03;;;;;;;10.95;7.65;;;14.00;99.90;;;;;;5092544;28;20059;-43
2022/10/15 00:27:29;;;;;;;16.98;8.60;;;14.00;99.90;;;;;;5092459;28;20261;-42
2022/10/15 00:29:55;;;;;;;12.00;8.52;;;13.90;99.90;;;;;;5081417;28;20086;-43
2022/10/15 00:32:20;;;;;;;14.07;8.13;;;13.90;99.90;;;;;;5091757;28;20093;-43
2022/10/15 00:34:46;;;;;;;12.48;8.55;;;13.90;99.90;;;;;;5092148;28;20476;-43
2022/10/15 00:37:11;;;;;;;13.45;8.52;;;13.90;99.90;;;;;;5091062;28;20024;-43
2022/10/15 00:39:37;;;;;;;9.48;8.05;;;13.90;99.90;;;;;;5092489;28;20032;-42
2022/10/15 00:42:03;;;;;;;11.55;8.63;;;13.90;99.90;;;;;;5091850;28;20055;-42
2022/10/15 00:44:28;;;;;;;11.45;8.45;;;13.90;99.90;;;;;;5090540;28;20030;-43
2022/10/15 00:46:56;;;;;;;12.02;8.82;;;13.90;99.90;;;;;;5092141;28;20144;-42
2022/10/15 00:49:36;;;;;;;18.20;9.18;;;13.90;99.90;;;;;;5092191;28;20024;-42
2022/10/15 00:52:24;;;;;;;14.07;8.87;;;13.90;99.90;;;;;;5091957;28;20016;-42
2022/10/15 00:54:56;;;;;;;14.55;9.75;;;13.90;99.90;;;;;;5092164;28;20035;-41
2022/10/15 00:57:23;;;;;;;11.48;8.52;;;13.90;99.90;;;;;;5088401;28;20027;-42
2022/10/15 00:59:57;;;;;;;10.88;8.48;;;13.90;99.90;;;;;;5062314;28;20069;-42
2022/10/15 01:02:22;;;;;;;12.43;8.40;;;13.90;99.90;;;;;;5062732;28;20021;-42
2022/10/15 01:04:48;;;;;;;12.82;8.73;;;13.80;99.90;;;;;;5054624;28;20020;-41
2022/10/15 01:07:14;;;;;;;12.52;9.98;;;13.80;99.90;;;;;;5061938;28;20583;-43
2022/10/15 01:09:43;;;;;;;11.90;8.70;;;13.90;99.90;;;;;;5061956;28;20107;-42
2022/10/15 01:12:26;;;;;;;13.80;8.93;;;13.90;99.90;;;;;;5060681;28;20490;-43
2022/10/15 01:15:07;;;;;;;10.48;8.07;;;13.90;99.90;;;;;;5061662;28;20340;-44
2022/10/15 01:17:42;;;;;;;13.75;8.70;;;14.00;99.90;;;;;;5056700;28;20021;-43
2022/10/15 01:20:27;;;;;;;10.15;7.57;;;14.00;99.90;;;;;;5059998;28;20488;-43
2022/10/15 01:22:58;;;;;;;13.95;9.00;;;14.00;99.90;;;;;;5060677;28;20053;-42
2022/10/15 01:25:54;;;;;;;13.18;7.90;;;14.00;99.90;;;;;;5051621;28;20025;-44
2022/10/15 01:28:42;;;;;;;11.45;8.57;;;14.10;99.90;;;;;;5050312;28;20514;-42
2022/10/15 01:31:28;;;;;;;13.82;9.13;;;14.10;99.90;;;;;;5073211;28;20461;-42
2022/10/15 01:34:08;;;;;;;12.27;8.68;;;14.10;99.90;;;;;;5059047;28;20025;-43
2022/10/15 01:36:43;;;;;;;14.35;9.27;;;14.10;99.90;;;;;;5059478;28;20056;-43
2022/10/15 01:39:22;;;;;;;13.25;8.77;;;14.10;99.90;;;;;;5058862;28;20108;-44
2022/10/15 01:42:37;;;;;;;11.80;8.15;;;14.10;99.90;;;;;;5058735;28;20024;-43
2022/10/15 01:45:08;;;;;;;15.38;8.55;;;14.00;99.90;;;;;;5048419;28;20032;-43
2022/10/15 01:47:46;;;;;;;12.40;8.40;;;14.00;99.90;;;;;;5059697;28;20021;-42
2022/10/15 01:50:15;;;;;;;12.35;8.52;;;14.00;99.90;;;;;;5060182;28;20017;-45
2022/10/15 01:52:42;;;;;;;14.25;9.45;;;14.00;99.90;;;;;;5059104;28;20027;-45
2022/10/15 01:55:12;;;;;;;12.40;8.50;;;14.00;99.90;;;;;;5062472;28;20354;-42
2022/10/15 01:57:42;;;;;;;14.18;8.73;;;14.00;99.90;;;;;;5060589;28;20091;-49
2022/10/15 02:00:07;;;;;;;17.52;9.65;;;14.00;99.90;;;;;;5062367;28;20060;-42
2022/10/15 02:02:33;;;;;;;12.60;9.82;;;14.00;99.90;;;;;;5090172;28;20048;-43
2022/10/15 02:04:59;;;;;;;13.20;9.25;;;14.00;99.90;;;;;;5090804;28;20549;-43
2022/10/15 02:07:53;;;;;;;11.70;9.25;;;14.00;99.90;;;;;;5090708;28;20512;-44
2022/10/15 02:10:38;;;;;;;10.80;8.55;;;14.00;99.90;;;;;;5090560;28;20028;-41
2022/10/15 02:13:45;;;;;;;12.65;9.15;;;14.00;99.90;;;;;;5088574;28;20454;-45
2022/10/15 02:16:26;;;;;;;13.00;8.57;;;14.00;99.90;;;;;;5090654;28;20032;-44
2022/10/15 02:19:05;;;;;;;11.77;8.95;;;14.10;99.90;;;;;;5090618;28;20024;-44
2022/10/15 02:22:02;;;;;;;12.07;8.90;;;14.00;99.90;;;;;;5060831;28;20035;-43
2022/10/15 02:24:39;;;;;;;12.57;8.73;;;14.10;99.90;;;;;;5059533;28;20025;-44
2022/10/15 02:27:07;;;;;;;14.55;9.68;;;14.10;99.90;;;;;;5055821;28;20470;-43
2022/10/15 02:29:34;;;;;;;12.07;9.07;;;14.10;99.90;;;;;;5066708;28;20032;-44
2022/10/15 02:32:01;;;;;;;11.18;8.80;;;14.00;99.90;;;;;;5057410;28;20504;-43
2022/10/15 02:34:29;;;;;;;10.57;8.43;;;14.00;99.90;;;;;;5049875;28;20031;-45
2022/10/15 02:36:57;;;;;;;9.18;8.20;;;14.00;99.90;;;;;;5049750;28;20068;-44
2022/10/15 02:39:24;;;;;;;11.32;8.65;;;14.00;99.90;;;;;;5048257;28;20032;-44
2022/10/15 02:41:51;;;;;;;10.55;7.60;;;14.00;99.90;;;;;;5049250;28;20043;-44
2022/10/15 02:44:17;;;;;;;10.70;8.75;;;13.90;99.90;;;;;;5049522;28;20021;-42
2022/10/15 02:46:42;;;;;;;12.32;8.55;;;13.90;99.90;;;;;;5049822;28;20078;-42
2022/10/15 02:49:07;;;;;;;11.98;8.02;;;13.90;99.90;;;;;;5049677;28;20110;-43
2022/10/15 02:51:34;;;;;;;11.60;9.32;;;13.90;99.90;;;;;;5049480;28;20025;-43
2022/10/15 02:54:02;;;;;;;11.05;8.63;;;13.90;99.90;;;;;;5049337;28;20032;-42
2022/10/15 02:56:28;;;;;;;11.18;7.50;;;13.80;99.90;;;;;;5049875;28;20032;-43
2022/10/15 02:58:54;;;;;;;14.25;8.95;;;13.80;99.90;;;;;;5065090;28;20035;-44
2022/10/15 03:01:19;;;;;;;11.45;9.07;;;13.80;99.90;;;;;;5079628;28;20028;-42
2022/10/15 03:03:45;;;;;;;10.63;8.50;;;13.80;99.90;;;;;;5089729;28;20031;-43
2022/10/15 03:06:11;;;;;;;13.73;7.00;;;13.80;99.90;;;;;;5089776;28;20098;-42
2022/10/15 03:08:37;;;;;;;9.88;8.18;;;13.70;99.90;;;;;;5089760;28;20070;-43
2022/10/15 03:11:02;;;;;;;10.95;8.05;;;13.70;99.90;;;;;;5062793;28;20107;-42
2022/10/15 03:13:28;;;;;;;16.83;8.95;;;13.70;99.90;;;;;;5058567;28;20040;-45
2022/10/15 03:15:54;;;;;;;10.30;8.13;;;13.70;99.90;;;;;;5056466;28;20031;-45
2022/10/15 03:18:20;;;;;;;12.00;8.52;;;13.70;99.90;;;;;;5057436;28;20174;-45
2022/10/15 03:20:54;;;;;;;10.73;7.70;;;13.70;99.90;;;;;;5057612;28;20024;-43
2022/10/15 03:23:19;;;;;;;9.73;7.70;;;13.60;99.90;;;;;;5058539;28;20242;-44
2022/10/15 03:25:44;;;;;;;10.93;8.55;;;13.60;99.90;;;;;;5063235;28;20051;-42
2022/10/15 03:28:10;;;;;;;10.13;7.88;;;13.60;99.90;;;;;;5070743;28;20216;-42
2022/10/15 03:30:35;;;;;;;10.88;7.82;;;13.50;99.90;;;;;;5080709;28;20206;-42
2022/10/15 03:33:01;;;;;;;8.95;6.72;;;13.50;99.90;;;;;;5089186;28;20035;-42
2022/10/15 03:35:27;;;;;;;9.82;7.75;;;13.50;99.90;;;;;;5085370;28;20620;-44
2022/10/15 03:37:53;;;;;;;9.95;7.28;;;13.50;99.90;;;;;;5049094;28;20029;-43
2022/10/15 03:40:19;;;;;;;8.10;6.28;;;13.40;99.90;;;;;;5049460;28;20044;-42
2022/10/15 03:42:50;;;;;;;8.32;7.45;;;13.40;99.90;;;;;;5048748;28;20320;-43
2022/10/15 03:45:15;;;;;;;8.30;6.75;;;13.40;99.90;;;;;;5048871;28;20071;-43
2022/10/15 03:47:41;;;;;;;7.55;6.25;;;13.30;99.90;;;;;;5049112;28;20542;-47
2022/10/15 03:50:07;;;;;;;7.60;5.75;;;13.30;99.90;;;;;;5050430;28;20514;-42
2022/10/15 03:52:32;;;;;;;8.25;5.90;;;13.40;99.90;;;;;;5052803;28;20043;-44
2022/10/15 03:54:58;;;;;;;9.05;6.68;;;13.30;99.90;;;;;;5052738;28;20060;-43
2022/10/15 03:57:23;;;;;;;9.85;7.45;;;13.30;99.90;;;;;;5051346;28;20028;-42
2022/10/15 03:59:49;;;;;;;8.90;7.30;;;13.30;99.90;;;;;;5076344;28;20428;-42
2022/10/15 04:02:14;;;;;;;8.63;7.10;;;13.30;99.90;;;;;;5092037;28;20028;-43
2022/10/15 04:04:40;;;;;;;10.43;7.82;;;13.30;99.90;;;;;;5093090;28;20024;-43
2022/10/15 04:07:05;;;;;;;13.88;9.32;;;13.30;99.90;;;;;;5093273;28;20024;-42
2022/10/15 04:09:31;;;;;;;10.57;7.43;;;13.20;99.90;;;;;;5093151;28;20415;-43
2022/10/15 04:11:56;;;;;;;7.20;6.20;;;13.20;99.90;;;;;;5090900;28;20067;-41
2022/10/15 04:14:22;;;;;;;9.70;7.45;;;13.10;99.90;;;;;;5092631;28;20028;-42
2022/10/15 04:16:47;;;;;;;8.63;6.35;;;13.10;99.90;;;;;;5092658;28;20027;-45
2022/10/15 04:19:13;;;;;;;7.82;6.55;;;13.00;99.90;;;;;;5092720;28;20073;-41
2022/10/15 04:21:38;;;;;;;9.23;7.13;;;13.00;99.90;;;;;;5092292;28;20603;-44
2022/10/15 04:24:04;;;;;;;9.30;7.18;;;12.90;99.90;;;;;;5092560;28;20032;-43
2022/10/15 04:26:29;;;;;;;6.68;5.90;;;12.80;99.90;;;;;;5092557;28;20024;-43
2022/10/15 04:28:55;;;;;;;11.73;9.40;;;12.70;99.90;;;;;;5091722;28;20028;-42
2022/10/15 04:31:20;;;;;;;15.20;11.18;;;12.70;99.90;;;;;;5083566;28;20074;-43
2022/10/15 04:33:48;;;;;;;13.05;8.98;;;12.80;99.90;;;;;;5092945;28;20026;-44
2022/10/15 04:36:14;;;;;;;9.07;7.53;;;12.80;99.90;;;;;;5092327;28;20052;-46
2022/10/15 04:38:39;;;;;;;12.43;7.63;;;12.70;99.90;;;;;;5090936;28;20105;-42
2022/10/15 04:41:10;;;;;;;9.40;7.30;;;12.60;99.90;;;;;;5092147;28;20099;-43
2022/10/15 04:43:36;;;;;;;9.68;7.82;;;12.60;99.90;;;;;;5092089;28;20153;-43
2022/10/15 04:46:04;;;;;;;10.05;8.13;;;12.60;99.90;;;;;;5092158;28;20065;-43
2022/10/15 04:48:31;;;;;;;10.77;7.18;;;12.50;99.90;;;;;;5091186;28;20077;-41
2022/10/15 04:51:23;;;;;;;13.00;8.85;;;12.50;99.90;;;;;;5092564;28;20059;-43
2022/10/15 04:53:48;;;;;;;21.23;14.60;;;12.50;99.90;;;;;;5090336;28;20040;-44
2022/10/15 04:56:16;;;;;;;18.45;12.85;;;12.60;99.90;;;;;;5092054;28;20077;-43
2022/10/15 04:58:44;;;;;;;13.48;10.25;;;12.70;99.90;;;;;;5079818;28;20481;-43
2022/10/15 05:01:13;;;;;;;14.00;10.02;;;12.60;99.90;;;;;;5078354;28;20624;-42
2022/10/15 05:03:41;;;;;;;16.08;11.70;;;12.70;99.90;;;;;;5090482;28;20385;-42
2022/10/15 05:06:12;;;;;;;16.25;10.60;;;12.60;99.90;;;;;;5090475;28;20031;-43
2022/10/15 05:08:42;;;;;;;11.93;8.93;;;12.60;99.90;;;;;;5092158;28;20020;-43
2022/10/15 05:11:10;;;;;;;10.50;7.85;;;12.60;99.90;;;;;;5090742;28;20024;-44
2022/10/15 05:13:36;;;;;;;10.73;8.30;;;12.50;99.90;;;;;;5058769;28;20128;-42
2022/10/15 05:16:25;;;;;;;9.55;8.18;;;12.50;99.90;;;;;;5070097;28;20059;-44
2022/10/15 05:18:55;;;;;;;16.45;11.70;;;12.50;99.90;;;;;;5071882;28;20083;-44
2022/10/15 05:21:20;;;;;;;13.30;9.82;;;12.50;99.90;;;;;;5071111;28;20108;-42
2022/10/15 05:23:46;;;;;;;13.48;8.45;;;12.50;99.90;;;;;;5071341;28;20104;-42
2022/10/15 05:26:15;;;;;;;14.48;9.55;;;12.50;99.90;;;;;;5071272;28;20020;-46
2022/10/15 05:28:40;;;;;;;13.77;10.25;;;12.50;99.90;;;;;;5066086;28;20036;-42
2022/10/15 05:31:12;;;;;;;12.23;9.00;;;12.50;99.90;;;;;;5077109;28;20028;-42
2022/10/15 05:33:37;;;;;;;13.48;9.20;;;12.50;99.90;;;;;;5091507;28;20474;-42
2022/10/15 05:36:12;;;;;;;13.77;10.60;;;12.60;99.90;;;;;;5079500;28;20040;-42
2022/10/15 05:38:38;;;;;;;15.88;10.73;;;12.60;99.90;;;;;;5070873;28;20075;-44
2022/10/15 05:41:04;;;;;;;13.85;10.25;;;12.60;99.90;;;;;;5059843;28;20056;-43
2022/10/15 05:43:29;;;;;;;12.45;9.40;;;12.60;99.90;;;;;;5061531;28;20028;-45
2022/10/15 05:45:55;;;;;;;14.07;10.00;;;12.70;99.90;;;;;;5059416;28;20481;-44
2022/10/15 05:48:21;;;;;;;14.90;10.80;;;12.70;99.90;;;;;;5060920;28;20029;-41
2022/10/15 05:50:47;;;;;;;11.82;8.80;;;12.70;99.90;;;;;;5061175;28;20036;-43
2022/10/15 05:53:12;;;;;;;15.15;9.88;;;12.70;99.90;;;;;;5059019;28;20021;-44
2022/10/15 05:55:38;;;;;;;12.13;9.05;;;12.70;99.90;;;;;;5061421;28;20492;-46
2022/10/15 05:58:04;;;;;;;15.68;11.32;;;12.70;99.90;;;;;;5060570;28;20025;-44
2022/10/15 06:00:30;;;;;;;18.48;12.65;;;12.70;99.90;;;;;;5067232;28;20444;-43
2022/10/15 06:02:56;;;;;;;16.17;10.50;;;12.80;99.90;;;;;;5062964;28;20028;-46
2022/10/15 06:05:21;;;;;;;12.40;9.25;;;12.80;99.90;;;;;;5060008;28;20522;-44
2022/10/15 06:07:47;;;;;;;11.82;9.07;;;12.70;99.90;;;;;;5059730;28;20082;-43
2022/10/15 06:10:12;;;;;;;11.82;8.75;;;12.70;99.90;;;;;;5061135;28;20112;-43
2022/10/15 06:12:38;;;;;;;11.82;8.82;;;12.70;99.90;;;;;;5058396;28;20045;-43
2022/10/15 06:15:04;;;;;;;12.05;9.18;;;12.60;99.90;;;;;;5061886;28;20021;-44
2022/10/15 06:17:30;;;;;;;12.00;8.90;;;12.70;99.90;;;;;;5071083;28;20577;-42
2022/10/15 06:19:55;;;;;;;13.82;9.48;;;12.60;99.90;;;;;;5063756;28;20021;-43
2022/10/15 06:22:21;;;;;;;12.30;9.10;;;12.60;99.90;;;;;;5067990;28;20195;-43
2022/10/15 06:24:46;;;;;;;22.05;15.02;;;12.70;99.90;;;;;;5063651;28;20036;-42
2022/10/15 06:27:12;;;;;;;30.58;18.48;;;12.70;99.90;;;;;;5063220;28;20048;-43
2022/10/15 06:29:38;;;;;;;25.63;17.50;;;12.80;99.90;;;;;;5065344;28;20496;-43
2022/10/15 06:32:04;;;;;;;22.00;15.40;;;12.80;99.90;;;;;;5080011;28;20037;-42
2022/10/15 06:34:29;;;;;;;20.55;13.70;;;12.90;99.90;;;;;;5081819;28;20024;-42
2022/10/15 06:36:55;;;;;;;27.50;17.73;;;12.90;99.90;;;;;;5052242;28;20021;-44
2022/10/15 06:39:20;;;;;;;31.15;19.17;;;12.90;99.90;;;;;;5051605;28;20021;-44
2022/10/15 06:41:46;;;;;;;29.58;17.88;;;13.00;99.90;;;;;;5049730;28;20021;-42
2022/10/15 06:44:11;;;;;;;31.67;18.77;;;13.00;99.90;;;;;;5051696;28;20488;-43
2022/10/15 06:46:37;;;;;;;44.75;25.58;;;13.00;99.90;;;;;;5062789;28;20027;-42
2022/10/15 06:49:03;;;;;;;39.58;23.98;;;13.00;99.90;;;;;;5061651;28;20129;-42
2022/10/15 06:51:28;;;;;;;34.15;20.80;;;13.10;99.90;;;;;;5063266;28;20025;-43
2022/10/15 06:53:54;;;;;;;39.67;24.27;;;13.10;99.90;;;;;;5054384;28;20111;-43
2022/10/15 06:56:19;;;;;;;47.13;26.52;;;13.20;99.90;;;;;;5085569;28;20059;-43
2022/10/15 06:58:45;;;;;;;40.28;23.27;;;13.20;99.90;;;;;;5068709;28;20040;-41
2022/10/15 07:01:10;;;;;;;35.08;21.83;;;13.30;99.90;;;;;;5083480;28;20107;-41
2022/10/15 07:03:37;;;;;;;35.78;21.67;;;13.30;99.90;;;;;;5084259;28;20020;-43
2022/10/15 07:06:05;;;;;;;30.08;19.50;;;13.40;99.90;;;;;;5070697;28;20563;-43
2022/10/15 07:08:31;;;;;;;34.67;20.67;;;13.40;99.90;;;;;;5082429;28;20035;-43
2022/10/15 07:10:57;;;;;;;42.15;24.33;;;13.40;99.90;;;;;;5077500;28;20059;-42
2022/10/15 07:13:23;;;;;;;33.38;21.05;;;13.40;99.90;;;;;;5074466;28;20501;-44
2022/10/15 07:15:52;;;;;;;24.40;16.55;;;13.50;99.90;;;;;;5084526;28;20051;-42
2022/10/15 07:18:18;;;;;;;39.03;23.58;;;13.50;99.90;;;;;;5072063;28;20499;-42
2022/10/15 07:20:44;;;;;;;34.28;22.90;;;13.50;99.90;;;;;;5090391;28;20020;-44
2022/10/15 07:23:09;;;;;;;33.42;21.35;;;13.50;99.90;;;;;;5090625;28;20063;-43
2022/10/15 07:25:35;;;;;;;28.63;19.67;;;13.60;99.90;;;;;;5093154;28;20024;-44
2022/10/15 07:28:01;;;;;;;33.85;21.88;;;13.60;99.90;;;;;;5093708;28;20024;-45
2022/10/15 07:30:27;;;;;;;32.83;20.45;;;13.60;99.90;;;;;;5073788;28;20039;-46
2022/10/15 07:32:54;;;;;;;35.20;22.08;;;13.60;99.90;;;;;;5067983;28;20451;-42
2022/10/15 07:35:20;;;;;;;33.83;20.77;;;13.70;99.90;;;;;;5068762;28;20028;-42
2022/10/15 07:37:46;;;;;;;33.88;22.33;;;13.70;99.90;;;;;;5072941;28;20040;-43
2022/10/15 07:40:12;;;;;;;37.05;24.38;;;13.80;99.90;;;;;;5082084;28;20024;-46
2022/10/15 07:42:39;;;;;;;39.03;25.27;;;14.00;99.90;;;;;;5087456;28;20170;-42
2022/10/15 07:45:05;;;;;;;34.15;22.50;;;14.10;99.90;;;;;;5075962;28;20067;-43
2022/10/15 07:47:31;;;;;;;32.00;21.35;;;14.30;99.90;;;;;;5087584;28;20024;-41
2022/10/15 07:49:56;;;;;;;41.22;24.52;;;14.40;99.90;;;;;;5081721;28;20035;-42
2022/10/15 07:52:21;;;;;;;35.47;23.20;;;14.50;99.90;;;;;;5074844;28;20032;-46
2022/10/15 07:54:47;;;;;;;34.40;22.00;;;14.50;99.90;;;;;;5055447;28;20093;-43
2022/10/15 07:57:13;;;;;;;36.58;23.58;;;14.60;99.90;;;;;;5070214;28;20039;-46
2022/10/15 07:59:38;;;;;;;31.45;21.83;;;14.70;99.90;;;;;;5071183;28;20023;-46
2022/10/15 08:02:03;;;;;;;31.40;21.85;;;14.80;99.90;;;;;;5083630;28;20393;-43
2022/10/15 08:04:29;;;;;;;35.35;22.67;;;14.90;99.90;;;;;;5092656;28;20031;-45
2022/10/15 08:06:55;;;;;;;28.48;19.98;;;14.90;99.90;;;;;;5093183;28;20031;-42
2022/10/15 08:09:20;;;;;;;34.20;20.00;;;15.00;99.90;;;;;;5092916;28;20024;-44
2022/10/15 08:11:46;;;;;;;30.50;20.90;;;15.10;99.90;;;;;;5092312;28;20024;-42
2022/10/15 08:14:11;;;;;;;33.53;22.20;;;15.20;99.90;;;;;;5092410;28;20103;-41
2022/10/15 08:16:37;;;;;;;32.58;23.27;;;15.20;99.90;;;;;;5093026;28;20493;-42
2022/10/15 08:19:03;;;;;;;29.23;19.98;;;15.30;99.90;;;;;;5092826;28;20056;-41
2022/10/15 08:21:29;;;;;;;30.05;19.27;;;15.40;99.90;;;;;;5088078;28;20070;-41
2022/10/15 08:23:54;;;;;;;33.75;22.42;;;15.50;99.90;;;;;;5064487;28;20021;-42
2022/10/15 08:26:20;;;;;;;28.83;19.52;;;15.50;99.90;;;;;;5063699;28;20021;-41
2022/10/15 08:28:45;;;;;;;26.90;18.95;;;15.50;99.90;;;;;;5061685;28;20057;-43
2022/10/15 08:31:11;;;;;;;30.70;21.48;;;15.60;99.90;;;;;;5081566;28;20524;-42
2022/10/15 08:33:37;;;;;;;32.90;20.27;;;15.60;99.90;;;;;;5084126;28;20542;-41
2022/10/15 08:36:06;;;;;;;26.70;19.98;;;15.70;99.90;;;;;;5082675;28;20028;-43
2022/10/15 08:38:33;;;;;;;34.05;21.33;;;16.00;99.90;;;;;;5076444;28;20029;-42
2022/10/15 08:41:00;;;;;;;28.95;21.15;;;16.20;99.90;;;;;;5088682;28;20484;-42
2022/10/15 08:43:37;;;;;;;29.70;20.70;;;16.50;99.90;;;;;;5077502;28;20072;-43
2022/10/15 08:46:08;;;;;;;26.20;18.13;;;16.90;99.90;;;;;;5076091;28;20021;-44
2022/10/15 08:48:40;;;;;;;23.95;17.30;;;17.00;99.90;;;;;;5061593;28;20466;-43
2022/10/15 08:51:12;;;;;;;25.10;17.17;;;17.10;99.90;;;;;;5066616;28;20035;-43
2022/10/15 08:53:50;;;;;;;27.58;19.98;;;17.00;99.90;;;;;;5051853;28;20025;-44
2022/10/15 08:56:22;;;;;;;23.05;17.73;;;16.80;99.90;;;;;;5051713;28;20116;-45
2022/10/15 08:58:59;;;;;;;23.00;16.63;;;16.70;99.90;;;;;;5051259;28;20022;-45
2022/10/15 09:01:42;;;;;;;27.05;19.02;;;16.50;99.90;;;;;;5072148;28;20093;-45
2022/10/15 09:04:47;;;;;;;23.67;17.77;;;16.60;99.90;;;;;;5083331;28;20107;-42
2022/10/15 09:07:18;;;;;;;25.33;17.52;;;16.70;99.90;;;;;;5075637;28;20028;-45
2022/10/15 09:09:49;;;;;;;21.60;16.33;;;16.70;99.90;;;;;;5089949;28;20032;-43
2022/10/15 09:12:40;;;;;;;26.50;18.80;;;17.00;99.90;;;;;;5071574;28;20028;-42
2022/10/15 09:15:15;;;;;;;27.70;18.17;;;17.70;99.90;;;;;;5068604;28;20028;-43
2022/10/15 09:17:43;;;;;;;22.80;17.88;;;18.30;99.90;;;;;;5064118;28;20546;-45
2022/10/15 09:20:20;;;;;;;27.23;18.52;;;18.60;99.90;;;;;;5062584;28;20513;-42
2022/10/15 09:22:49;;;;;;;21.95;17.40;;;18.60;99.90;;;;;;5062479;28;20016;-42
2022/10/15 09:25:21;;;;;;;20.15;15.98;;;18.50;99.90;;;;;;5062145;28;20021;-43
2022/10/15 09:27:48;;;;;;;19.10;14.80;;;18.20;99.90;;;;;;5072479;28;20074;-46
2022/10/15 09:30:36;;;;;;;23.88;17.08;;;18.10;99.90;;;;;;5072286;28;20021;-46
2022/10/15 09:33:14;;;;;;;25.83;18.35;;;17.70;99.90;;;;;;5079953;28;20676;-44
2022/10/15 09:36:03;;;;;;;19.33;14.85;;;17.50;99.90;;;;;;5091428;28;20042;-43
2022/10/15 09:38:40;;;;;;;22.73;16.70;;;17.20;99.90;;;;;;5092680;28;20024;-42
2022/10/15 09:41:42;;;;;;;22.92;16.15;;;17.00;99.90;;;;;;5092597;28;20032;-43
2022/10/15 09:44:12;;;;;;;20.27;15.07;;;16.80;99.90;;;;;;5092297;28;20585;-43
2022/10/15 09:46:45;;;;;;;;;;;16.80;99.90;;;;;;5092778;28;20028;-42
2022/10/15 09:49:26;;;;;;;20.00;16.13;;;16.80;99.90;;;;;;5091601;28;19958;-43
2022/10/15 09:52:27;;;;;;;18.95;15.07;;;16.90;99.90;;;;;;5091855;28;20024;-42
2022/10/15 09:54:59;;;;;;;;;;;17.10;99.90;;;;;;5092611;28;20032;-45
2022/10/15 09:57:25;;;;;;;21.17;14.23;;;17.30;99.90;;;;;;5091991;28;19908;-42
2022/10/15 09:59:53;;;;;;;21.88;16.33;;;17.30;99.90;;;;;;5080531;28;20020;-44
2022/10/15 10:02:20;;;;;;;22.92;16.00;;;17.30;99.90;;;;;;5082867;28;20024;-43
2022/10/15 10:04:46;;;;;;;18.60;14.73;;;17.50;99.90;;;;;;5090416;28;20024;-46
2022/10/15 10:07:35;;;;;;;17.23;13.35;;;17.50;99.90;;;;;;5090530;28;20073;-45
2022/10/15 10:10:05;;;;;;;23.17;14.68;;;17.50;99.90;;;;;;5092091;28;20020;-47
2022/10/15 10:12:34;;;;;;;16.73;13.05;;;17.60;99.90;;;;;;5091492;28;20040;-44
2022/10/15 10:15:03;;;;;;;21.40;16.00;;;17.80;99.90;;;;;;5091652;28;20024;-43
2022/10/15 10:17:30;;;;;;;19.85;15.98;;;17.70;99.90;;;;;;5091924;28;20504;-44
2022/10/15 10:20:08;;;;;;;21.63;16.67;;;17.90;99.90;;;;;;5091950;28;20111;-42
2022/10/15 10:22:46;;;;;;;19.25;16.23;;;17.80;99.90;;;;;;5091400;28;20032;-42
2022/10/15 10:25:26;;;;;;;17.85;14.02;;;18.30;99.90;;;;;;5091402;28;20028;-44
2022/10/15 10:28:13;;;;;;;;;;;19.80;99.90;;;;;;5091525;28;20105;-44
2022/10/15 10:30:51;;;;;;;16.88;12.52;;;20.00;99.90;;;;;;5075004;28;20572;-46
2022/10/15 10:33:24;;;;;;;18.42;14.82;;;20.10;99.90;;;;;;5090225;28;20024;-47
2022/10/15 10:35:50;;;;;;;16.88;14.05;;;19.20;99.90;;;;;;5074820;28;20033;-41
2022/10/15 10:38:22;;;;;;;14.30;11.48;;;19.30;99.90;;;;;;5060478;28;20405;-43
2022/10/15 10:41:06;;;;;;;15.68;11.63;;;20.30;99.90;;;;;;5060513;28;20034;-43
2022/10/15 10:43:32;;;;;;;13.25;11.18;;;22.00;99.90;;;;;;5061008;28;20024;-44
2022/10/15 10:46:00;;;;;;;12.90;11.20;;;23.70;99.90;;;;;;5059671;28;20478;-42
2022/10/15 10:48:37;;;;;;;17.38;12.43;;;23.90;96.50;;;;;;5059190;28;20027;-43
2022/10/15 10:51:13;;;;;;;14.80;13.05;;;22.80;97.80;;;;;;5060550;28;20331;-44
2022/10/15 10:54:04;;;;;;;18.08;13.10;;;21.80;99.40;;;;;;5069565;28;20039;-42
2022/10/15 10:56:35;;;;;;;16.20;13.13;;;21.10;99.90;;;;;;5071131;28;20417;-43
2022/10/15 10:59:14;;;;;;;16.75;14.00;;;20.70;99.90;;;;;;5070199;28;20121;-42
2022/10/15 11:01:40;;;;;;;16.10;12.10;;;19.90;99.90;;;;;;5075023;28;20412;-43
2022/10/15 11:04:12;;;;;;;18.95;14.43;;;20.30;99.90;;;;;;5088475;28;20020;-42
2022/10/15 11:07:00;;;;;;;17.38;13.38;;;20.00;99.90;;;;;;5090742;28;20498;-42
2022/10/15 11:10:01;;;;;;;19.00;14.73;;;19.90;99.90;;;;;;5090463;28;20093;-43
2022/10/15 11:13:09;;;;;;;18.38;13.13;;;19.40;99.90;;;;;;5070433;28;20401;-46
2022/10/15 11:15:43;;;;;;;16.90;12.40;;;19.40;99.90;;;;;;5070803;28;20123;-43
2022/10/15 11:18:36;;;;;;;14.25;10.98;;;19.70;99.90;;;;;;5070316;28;20712;-42
2022/10/15 11:21:25;;;;;;;16.08;12.20;;;19.60;99.90;;;;;;5071066;28;20024;-42
2022/10/15 11:24:03;;;;;;;13.48;11.43;;;19.50;99.90;;;;;;5070427;28;20032;-43
2022/10/15 11:26:50;;;;;;;11.95;9.77;;;19.40;99.90;;;;;;5062816;28;20032;-44
2022/10/15 11:29:34;;;;;;;13.25;10.10;;;19.40;99.90;;;;;;5070617;28;20024;-43
2022/10/15 11:32:26;;;;;;;14.38;10.57;;;19.50;99.90;;;;;;5070305;28;20036;-44
2022/10/15 11:35:23;;;;;;;12.13;9.77;;;19.40;99.90;;;;;;5070360;28;20024;-44
2022/10/15 11:38:40;;;;;;;12.93;10.02;;;19.30;99.90;;;;;;5058237;28;20020;-42
2022/10/15 11:41:29;;;;;;;14.70;9.82;;;19.10;99.90;;;;;;5005373;28;20030;-43
2022/10/15 11:44:07;;;;;;;13.02;9.45;;;20.50;99.90;;;;;;5062337;28;20040;-43
2022/10/15 11:46:49;;;;;;;14.63;8.20;;;21.80;99.90;;;;;;5060290;28;20051;-43
2022/10/15 11:49:52;;;;;;;8.43;6.63;;;23.50;99.30;;;;;;5063567;28;20025;-43
2022/10/15 11:52:36;;;;;;;8.65;6.53;;;24.30;98.30;;;;;;5032182;28;20037;-44
2022/10/15 11:55:12;;;;;;;7.20;6.45;;;25.30;95.50;;;;;;5071686;28;20028;-43
2022/10/15 11:57:39;;;;;;;5.55;4.97;;;25.50;94.30;;;;;;5083944;28;20069;-44
2022/10/15 12:00:10;;;;;;;7.40;5.13;;;26.30;93.00;;;;;;5087102;28;20177;-45
2022/10/15 12:02:38;;;;;;;6.85;5.50;;;26.00;90.50;;;;;;5080860;28;20025;-43
2022/10/15 12:05:08;;;;;;;7.55;5.03;;;24.40;91.90;;;;;;5088432;28;20453;-43
2022/10/15 12:07:39;;;;;;;7.07;5.10;;;24.80;92.90;;;;;;5071699;28;20056;-45
2022/10/15 12:10:43;;;;;;;5.25;4.47;;;24.90;91.20;;;;;;5087768;28;20451;-45
2022/10/15 12:13:30;;;;;;;4.63;4.22;;;23.60;92.90;;;;;;5081545;28;20615;-45
2022/10/15 12:16:06;;;;;;;4.90;4.10;;;22.40;95.40;;;;;;5093404;28;20648;-46
2022/10/15 12:18:51;;;;;;;4.90;4.40;;;22.90;95.40;;;;;;5082851;28;20031;-43
2022/10/15 12:21:37;;;;;;;4.88;4.38;;;23.10;95.10;;;;;;5072058;28;20031;-45
2022/10/15 12:24:09;;;;;;;6.80;5.07;;;22.30;95.70;;;;;;5076180;28;20053;-43
2022/10/15 12:26:35;;;;;;;6.25;4.68;;;21.30;97.00;;;;;;5085847;28;20381;-42
2022/10/15 12:29:16;;;;;;;4.90;4.28;;;20.70;98.70;;;;;;5083066;28;20033;-47
2022/10/15 12:31:50;;;;;;;7.03;4.80;;;20.60;99.10;;;;;;5059168;28;20540;-43
2022/10/15 12:34:27;;;;;;;6.75;4.28;;;20.10;99.90;;;;;;5061586;28;20033;-44
2022/10/15 12:37:05;;;;;;;4.10;3.70;;;19.90;99.90;;;;;;5065947;28;20347;-44
2022/10/15 12:39:31;;;;;;;6.00;3.97;;;19.90;99.90;;;;;;5068335;28;20064;-45
2022/10/15 12:41:58;;;;;;;4.47;4.00;;;20.30;99.90;;;;;;5070293;28;20367;-43
2022/10/15 12:44:32;;;;;;;3.97;3.60;;;20.20;99.90;;;;;;5072526;28;20417;-47
2022/10/15 12:46:58;;;;;;;5.45;4.05;;;20.50;99.90;;;;;;5072208;28;20032;-45
2022/10/15 12:49:29;;;;;;;4.00;3.58;;;20.50;99.90;;;;;;5070946;28;20024;-44
2022/10/15 12:51:58;;;;;;;7.18;2.90;;;20.20;99.90;;;;;;5069843;28;20020;-42
2022/10/15 12:54:39;;;;;;;2.55;2.20;;;20.20;99.90;;;;;;5069782;28;20036;-43
2022/10/15 12:57:24;;;;;;;;;;;20.70;99.90;;;;;;5070531;28;20020;-43